Relevés horaires Bierset (Belgique)


Relevés horaires à Bierset - Mercredi 18 Mai 2022
Heure UTC1 Température [°C] Vent [km/h] Hum. [%] Pres.4 [hPa] Visi. [Km] Nébu. [octa] Préc.5 [mm] Cond.
2m. Res. Ros. Dir.2 Vit. Moy. Raf.3
23:00 21.0 21.0 14.7 E 3.7 5.6 11.1 67 1018.3(-1.0/3h) 30 5/8 -- --
22:00 21.9 21.9 14.6 E 5.6 5.6 9.3 63 1018.9(-0.4/3h) 30 5/8 -- --
21:00 20.9 20.9 13.7 NNE 3.7 5.6 7.4 63 1019.4(-0.1/3h) 30 5/8 -- --
20:00 21.9 21.9 13.9 N 1.9 3.7 5.6 60 1019.3(-0.5/3h) 30 5/8 -- --
19:00 23.4 23.4 13.7 N 3.7 5.6 7.4 54 1019.2(-0.7/3h) 30 5/8 -- --
18:00 24.5 24.5 13.9 NNO 5.6 9.3 13.0 52 1019.3(-0.8/3h) 30 5/8 0/12h
--
17:00 25.5 25.5 13.9 NNO 3.7 5.6 9.3 49 1019.6(-0.7/3h) 30 6/8 -- --
16:00 26.4 26.4 15.3 N 5.6 7.4 11.1 51 1019.7(-0.8/3h) 30 6/8 -- --
15:00 25.9 25.9 15.3 NO 5.6 9.3 13.0 52 1020(-0.6/3h) 30 6/8 -- --
14:00 25.8 25.8 15.2 NNO 7.4 7.4 13.0 52 1020.3(-0.4/3h) 30 5/8 -- --
13:00 24.6 24.6 14.5 ONO 7.4 9.3 13.0 53 1020.6(-0.7/3h) 30 5/8 -- --
12:00 25.3 25.3 14.2 ONO 5.6 7.4 13.0 50 1020.6(-0.8/3h) 30 5/8 0/6h
--
11:00 25.3 25.3 12.9 NNO 5.6 7.4 11.1 46 1020.8(-0.4/3h) 30 4/8 -- --
10:00 24.0 24.0 12.6 O 5.6 7.4 11.1 49 1021.4(0.6/3h) 30 5/8 -- --
09:00 23.3 23.3 12.4 OSO 7.4 7.4 13.0 50 1021.5(0.8/3h) 30 5/8 -- --
08:00 21.3 21.3 12.5 O 5.6 5.6 9.3 57 1021.5(1.0/3h) 30 5/8 -- --
07:00 19.8 19.8 11.4 S 5.6 5.6 13.0 58 1021.1(1.2/3h) 30 5/8 -- --
06:00 19.4 19.4 11.0 S 3.7 7.4 16.7 58 1021(1.5/3h) 30 6/8 0/12h
--
05:00 18.0 18.0 10.5 OSO 3.7 5.6 14.8 62 1020.7(1.0/3h) 30 6/8 -- --
04:00 18.3 18.3 10.6 SSE 7.4 7.4 16.7 61 1020(0.4/3h) 30 6/8 -- --
03:00 17.6 17.6 10.9 SSE 5.6 7.4 13.0 65 1019.6(0.2/3h) 30 6/8 -- --
02:00 18.1 18.1 11.3 SSE 5.6 7.4 9.3 64 1019.7(0.4/3h) 30 4/8 -- --
01:00 18.6 18.6 11.0 S 5.6 5.6 7.4 61 1019.6(0.6/3h) 30 0/8 -- --
00:00 19.5 19.5 11.4 S 5.6 7.4 14.8 59 1019.3(0.4/3h) 30 0/8 0/6h
0/24h
Etat du ciel inchangé

1 Coordinated Universal Time. Actuellement il est 08:00 locale et 06:00 UTC.

2 Le vent souffle depuis la direction indiquée vers la direction oposée.

3 Les rafales max. sont disponible 40 min après l'heure du relevé.

4 Pour les stations d'altitude (plus de 600m) le géopotentiel du niveau le plus proche de la pression obligatoire est indiqué.

5 Les stations disposant d'un diffuseur peuvent indiquer "trace". Cela signifie que des précipitations ont touchés le sol mais que la quantité est inférieure à 0.1 mm.

Récapitulatif de la journée
Température [°C] Vent [km/h] Ensoleillement4 [h] Precipitations totale5 [mm] Pression [Hpa]
Min1 Max.2 Moy.3 Max. Min Max.
17.5 26.6 6.8 16.7 0 h 0 min 0 1018.3 1021.5

1 Température minimale relevée entre 18:00 UTC la veille et 18:00 UTC le jour donné.

2 Température maximale relevée entre 06:00 UTC le jour donné et 06:00 UTC le lendemain.

3 Vent moyen de la journée basé sur les relevés horaires.

4 Ensoleillement en heures relevé entre 06:00 UTC la veille et 06:00 UTC le jour donné.

5 Précipitations totales tombées entre 06:00 UTC la jour donné et 06:00 UTC le lendemain.

Graphiques horaires